Time;durP1;ratioP1;P1;durP2;ratioP2;P2;SDS_P1;SDS_P2;PMS_P1;PMS_P2;Temp;Humidity;BMP_temperature;BMP_pressure;BME280_temperature;BME280_humidity;BME280_pressure;Samples;Min_cycle;Max_cycle;Signal;HPM_P1;HPM_P2
2023/05/23 00:00:14;;;;;;;0.00;0.00;;;;;;;12.32;57.10;101309.47;6146455;23;20001;-75
2023/05/23 00:02:40;;;;;;;0.00;0.00;;;;;;;12.16;56.52;101282.97;6121719;23;20083;-74
2023/05/23 00:05:06;;;;;;;0.00;0.00;;;;;;;12.10;56.31;101294.97;6225940;23;20018;-75
2023/05/23 00:07:36;;;;;;;0.00;0.00;;;;;;;11.91;56.93;101286.19;6118756;23;20435;-73
2023/05/23 00:10:02;;;;;;;0.00;0.00;;;;;;;11.87;57.59;101302.31;6150254;23;20006;-73
2023/05/23 00:12:28;;;;;;;0.00;0.00;;;;;;;11.79;57.49;101295.34;6146161;23;20043;-73
2023/05/23 00:14:54;;;;;;;0.00;0.00;;;;;;;11.68;57.87;101291.66;6204763;23;20058;-74
2023/05/23 00:17:20;;;;;;;0.00;0.00;;;;;;;11.67;58.52;101289.16;6141556;23;21061;-74
2023/05/23 00:19:49;;;;;;;0.00;0.00;;;;;;;11.56;57.96;101279.13;6122089;23;20009;-75
2023/05/23 00:22:15;;;;;;;0.00;0.00;;;;;;;11.56;58.41;101290.91;6092651;23;20010;-74
2023/05/23 00:24:48;;;;;;;0.00;0.00;;;;;;;11.49;58.59;101285.63;6094271;23;20439;-73
2023/05/23 00:27:13;;;;;;;0.00;0.00;;;;;;;11.43;59.13;101285.78;6093360;23;20006;-72
2023/05/23 00:29:39;;;;;;;0.00;0.00;;;;;;;11.32;58.89;101282.06;6120256;23;20455;-73
2023/05/23 00:32:04;;;;;;;0.00;0.00;;;;;;;11.45;58.92;101302.81;6071011;23;20096;-74
2023/05/23 00:34:29;;;;;;;0.00;0.00;;;;;;;11.44;59.62;101309.38;6091097;23;20006;-74
2023/05/23 00:37:03;;;;;;;0.00;0.00;;;;;;;11.25;59.59;101282.25;6071786;23;20013;-74
2023/05/23 00:39:29;;;;;;;0.00;0.00;;;;;;;11.38;59.74;101310.38;6140921;23;20014;-76
2023/05/23 00:41:59;;;;;;;0.00;0.00;;;;;;;11.30;59.27;101303.38;6141822;23;20911;-75
2023/05/23 00:44:25;;;;;;;0.00;0.00;;;;;;;11.17;59.66;101293.63;6073402;23;20348;-74
2023/05/23 00:46:54;;;;;;;0.00;0.00;;;;;;;11.16;59.98;101298.25;6096408;23;20009;-74
2023/05/23 00:49:21;;;;;;;0.00;0.00;;;;;;;11.20;59.40;101303.22;6097335;23;20055;-75
2023/05/23 00:51:48;;;;;;;0.00;0.00;;;;;;;11.22;59.34;101310.13;6120889;23;20006;-75
2023/05/23 00:54:20;;;;;;;0.00;0.00;;;;;;;11.05;59.83;101290.13;6147767;23;20043;-75
2023/05/23 00:56:48;;;;;;;0.00;0.00;;;;;;;11.03;59.58;101292.28;6093631;23;20009;-75
2023/05/23 00:59:16;;;;;;;0.00;0.00;;;;;;;11.07;59.79;101298.91;6073548;23;20009;-74
2023/05/23 01:01:45;;;;;;;0.00;0.00;;;;;;;10.94;59.40;101284.47;6121452;23;20010;-74
2023/05/23 01:04:12;;;;;;;0.00;0.00;;;;;;;11.06;59.39;101302.75;6119694;23;20005;-76
2023/05/23 01:06:37;;;;;;;0.00;0.00;;;;;;;10.96;59.34;101293.25;6113614;23;20070;-74
2023/05/23 01:09:03;;;;;;;0.00;0.00;;;;;;;11.00;59.54;101308.09;6135503;23;20367;-75
2023/05/23 01:11:43;;;;;;;0.00;0.00;;;;;;;10.96;59.76;101304.19;6088313;23;20418;-75
2023/05/23 01:14:19;;;;;;;0.00;0.00;;;;;;;10.98;59.80;101302.06;6085860;23;20069;-75
2023/05/23 01:16:53;;;;;;;0.00;0.00;;;;;;;10.94;60.10;101306.38;6115092;23;20001;-75
2023/05/23 01:19:35;;;;;;;0.00;0.00;;;;;;;10.91;60.14;101309.59;6110047;23;20009;-75
2023/05/23 01:22:10;;;;;;;0.00;0.00;;;;;;;10.83;59.80;101310.84;6113827;23;20025;-79
2023/05/23 01:25:21;;;;;;;0.00;0.00;;;;;;;10.82;60.25;101308.34;6111750;23;19999;-74
2023/05/23 01:27:54;;;;;;;0.00;0.00;;;;;;;10.81;60.20;101312.97;6114022;23;20346;-75
2023/05/23 01:30:20;;;;;;;0.00;0.00;;;;;;;10.77;60.47;101311.81;6115561;23;20459;-75
2023/05/23 01:32:49;;;;;;;0.00;0.00;;;;;;;10.71;60.30;101315.53;6113903;23;20010;-75
2023/05/23 01:35:25;;;;;;;0.00;0.00;;;;;;;10.67;60.51;101306.16;6116197;23;20435;-75
2023/05/23 01:37:52;;;;;;;0.00;0.00;;;;;;;10.70;60.78;101321.25;6088233;23;20006;-74
2023/05/23 01:40:18;;;;;;;0.00;0.00;;;;;;;10.64;60.53;101307.47;6066921;23;20026;-75
2023/05/23 01:42:44;;;;;;;0.00;0.00;;;;;;;10.62;60.85;101320.56;6114432;23;20020;-74
2023/05/23 01:45:11;;;;;;;0.00;0.00;;;;;;;10.62;61.07;101309.63;6040376;23;20020;-74
2023/05/23 01:47:38;;;;;;;0.00;0.00;;;;;;;10.63;61.28;101305.81;6065152;23;20068;-74
2023/05/23 01:50:05;;;;;;;0.00;0.00;;;;;;;10.64;60.98;101312.97;6061808;23;20546;-74
2023/05/23 01:52:30;;;;;;;0.00;0.00;;;;;;;10.57;60.88;101312.28;6063768;23;20060;-73
2023/05/23 01:54:56;;;;;;;0.00;0.00;;;;;;;10.52;61.16;101297.66;6043121;23;20420;-74
2023/05/23 01:57:23;;;;;;;0.00;0.00;;;;;;;10.50;61.06;101306.13;6111738;23;20420;-73
2023/05/23 01:59:49;;;;;;;0.00;0.00;;;;;;;10.45;61.15;101303.28;6113562;23;20088;-75
2023/05/23 02:02:14;;;;;;;0.00;0.00;;;;;;;10.42;61.71;101303.75;6089007;23;20026;-74
2023/05/23 02:04:40;;;;;;;0.00;0.00;;;;;;;10.35;61.23;101309.34;6088232;23;20021;-75
2023/05/23 02:07:06;;;;;;;0.00;0.00;;;;;;;10.27;61.83;101310.53;6061342;23;20009;-74
2023/05/23 02:09:31;;;;;;;0.00;0.00;;;;;;;10.25;61.84;101315.44;6062937;23;20006;-75
2023/05/23 02:11:58;;;;;;;0.00;0.00;;;;;;;10.19;61.50;101315.56;6081107;23;20041;-74
2023/05/23 02:14:25;;;;;;;0.00;0.00;;;;;;;10.07;61.58;101310.13;6086998;23;20057;-74
2023/05/23 02:16:51;;;;;;;0.00;0.00;;;;;;;9.93;61.64;101307.66;6081881;23;20014;-73
2023/05/23 02:19:17;;;;;;;0.00;0.00;;;;;;;9.89;61.39;101317.41;6088662;23;20056;-75
2023/05/23 02:21:42;;;;;;;0.00;0.00;;;;;;;9.85;61.93;101316.22;6211888;23;20010;-74
2023/05/23 02:24:07;;;;;;;0.00;0.00;;;;;;;9.83;62.03;101326.56;6161986;23;20021;-74
2023/05/23 02:26:33;;;;;;;0.00;0.00;;;;;;;9.71;62.09;101321.13;6205964;23;20021;-75
2023/05/23 02:28:58;;;;;;;0.00;0.00;;;;;;;9.64;61.92;101314.09;6075909;23;20320;-75
2023/05/23 02:31:26;;;;;;;0.00;0.00;;;;;;;9.67;62.14;101330.03;6055675;23;20014;-75
2023/05/23 02:33:54;;;;;;;0.00;0.00;;;;;;;9.64;61.75;101325.00;6075159;23;20067;-75
2023/05/23 02:36:20;;;;;;;0.00;0.00;;;;;;;9.67;62.08;101340.94;6056600;23;20018;-76
2023/05/23 02:38:45;;;;;;;0.00;0.00;;;;;;;9.61;61.77;101324.44;6155855;23;20020;-75
2023/05/23 02:41:11;;;;;;;0.00;0.00;;;;;;;9.66;61.59;101340.09;6179685;23;20067;-76
2023/05/23 02:43:37;;;;;;;0.00;0.00;;;;;;;9.71;61.47;101344.84;6180191;23;20013;-75
2023/05/23 02:46:02;;;;;;;0.00;0.00;;;;;;;9.67;60.99;101330.03;6098755;23;20117;-76
2023/05/23 02:48:27;;;;;;;0.00;0.00;;;;;;;9.66;61.39;101334.63;6107999;23;20079;-76
2023/05/23 02:50:53;;;;;;;0.00;0.00;;;;;;;9.70;61.35;101340.47;6158973;23;20032;-75
2023/05/23 02:53:18;;;;;;;0.00;0.00;;;;;;;9.59;61.06;101329.31;6064211;23;20034;-74
2023/05/23 02:55:44;;;;;;;0.00;0.00;;;;;;;9.62;61.05;101338.91;6211724;23;20370;-75
2023/05/23 02:58:09;;;;;;;0.00;0.00;;;;;;;9.66;60.69;101342.00;6187250;23;20013;-76
2023/05/23 03:00:35;;;;;;;0.00;0.00;;;;;;;9.64;61.12;101352.31;6088766;23;20084;-75
2023/05/23 03:03:01;;;;;;;0.00;0.00;;;;;;;9.65;61.16;101362.19;6081945;23;20010;-74
2023/05/23 03:05:26;;;;;;;0.00;0.00;;;;;;;9.58;61.12;101349.47;6088580;23;20001;-73
2023/05/23 03:07:53;;;;;;;0.00;0.00;;;;;;;9.57;61.20;101347.00;6165632;23;20010;-76
2023/05/23 03:10:19;;;;;;;0.00;0.00;;;;;;;9.57;61.04;101342.34;6208362;23;20639;-74
2023/05/23 03:12:45;;;;;;;0.00;0.00;;;;;;;9.56;61.13;101346.16;6190868;23;20014;-75
2023/05/23 03:15:11;;;;;;;0.00;0.00;;;;;;;9.51;61.11;101339.75;6082000;23;20037;-75
2023/05/23 03:17:36;;;;;;;0.00;0.00;;;;;;;9.56;61.11;101351.63;6216854;23;20010;-74
2023/05/23 03:20:03;;;;;;;0.00;0.00;;;;;;;9.55;61.29;101341.78;6108561;23;20013;-75
2023/05/23 03:22:28;;;;;;;0.00;0.00;;;;;;;9.59;60.93;101345.69;6188776;23;20632;-76
2023/05/23 03:24:54;;;;;;;0.00;0.00;;;;;;;9.60;60.66;101350.06;6061163;23;20017;-76
2023/05/23 03:27:20;;;;;;;0.00;0.00;;;;;;;9.52;61.42;101341.41;6087618;23;20006;-75
2023/05/23 03:29:46;;;;;;;0.00;0.00;;;;;;;9.57;61.24;101347.81;6084531;23;20015;-74
2023/05/23 03:32:12;;;;;;;0.00;0.00;;;;;;;9.50;61.23;101343.53;6082471;23;20095;-74
2023/05/23 03:34:37;;;;;;;0.00;0.00;;;;;;;9.43;61.69;101346.38;6165204;23;20045;-75
2023/05/23 03:37:03;;;;;;;0.00;0.00;;;;;;;9.36;61.61;101341.03;6057152;23;20057;-76
2023/05/23 03:39:29;;;;;;;0.00;0.00;;;;;;;9.25;62.11;101339.94;6113278;23;20080;-74
2023/05/23 03:41:55;;;;;;;0.00;0.00;;;;;;;9.21;62.38;101333.31;6162258;23;20143;-75
2023/05/23 03:44:20;;;;;;;0.00;0.00;;;;;;;9.22;62.15;101343.13;6188037;23;20091;-73
2023/05/23 03:46:45;;;;;;;0.00;0.00;;;;;;;9.18;62.62;101350.13;6087055;23;20014;-75
2023/05/23 03:49:11;;;;;;;0.00;0.00;;;;;;;9.17;62.29;101347.63;6083513;23;20056;-75
2023/05/23 03:51:36;;;;;;;0.00;0.00;;;;;;;9.20;62.73;101342.56;6216693;23;20002;-75
2023/05/23 03:54:02;;;;;;;0.00;0.00;;;;;;;9.21;63.03;101338.78;6210831;23;20104;-76
2023/05/23 03:56:27;;;;;;;0.00;0.00;;;;;;;9.19;62.84;101346.34;6191583;23;20006;-74
2023/05/23 03:58:52;;;;;;;0.00;0.00;;;;;;;9.12;63.00;101350.25;6082537;23;20053;-75
2023/05/23 04:01:20;;;;;;;0.00;0.00;;;;;;;9.07;63.28;101343.59;6184479;23;20075;-75
2023/05/23 04:03:46;;;;;;;0.00;0.00;;;;;;;8.99;63.33;101340.38;6086708;23;20487;-75
2023/05/23 04:06:12;;;;;;;0.03;0.03;;;;;;;9.00;63.44;101339.31;6087248;23;20336;-74
2023/05/23 04:08:40;;;;;;;0.00;0.00;;;;;;;9.01;63.64;101349.13;6059338;23;20054;-75
2023/05/23 04:11:07;;;;;;;0.00;0.00;;;;;;;9.02;64.04;101350.81;6210750;23;20010;-74
2023/05/23 04:13:32;;;;;;;0.00;0.00;;;;;;;9.00;63.91;101342.03;6107167;23;20018;-75
2023/05/23 04:16:00;;;;;;;0.00;0.00;;;;;;;9.05;64.17;101355.78;6089902;23;20014;-74
2023/05/23 04:18:27;;;;;;;0.00;0.00;;;;;;;9.06;63.77;101358.28;6107061;23;20002;-75
2023/05/23 04:20:53;;;;;;;0.00;0.00;;;;;;;9.12;63.94;101367.44;6082958;23;20097;-75
2023/05/23 04:23:18;;;;;;;0.00;0.00;;;;;;;9.14;64.11;101365.31;6085675;23;20038;-76
2023/05/23 04:25:44;;;;;;;0.00;0.00;;;;;;;9.15;64.33;101356.06;6063997;23;20009;-74
2023/05/23 04:28:11;;;;;;;0.00;0.00;;;;;;;9.22;64.18;101367.69;6063312;23;20048;-75
2023/05/23 04:30:36;;;;;;;0.00;0.00;;;;;;;9.21;64.17;101366.06;6083133;23;20017;-73
2023/05/23 04:33:02;;;;;;;0.00;0.00;;;;;;;9.18;64.45;101369.22;6114302;23;20002;-75
2023/05/23 04:35:28;;;;;;;0.00;0.00;;;;;;;9.19;64.15;101367.34;6082337;23;20018;-76
2023/05/23 04:37:56;;;;;;;0.00;0.00;;;;;;;9.10;64.50;101358.66;6088536;23;20010;-75
2023/05/23 04:40:23;;;;;;;0.00;0.00;;;;;;;9.16;64.75;101368.66;6059805;23;20094;-75
2023/05/23 04:42:50;;;;;;;0.00;0.00;;;;;;;9.10;65.06;101358.66;6086932;23;20093;-75
2023/05/23 04:45:15;;;;;;;0.00;0.00;;;;;;;9.17;64.99;101375.78;6064722;23;20108;-74
2023/05/23 04:47:41;;;;;;;0.00;0.00;;;;;;;9.19;65.61;101368.19;6108252;23;20002;-75
2023/05/23 04:50:07;;;;;;;0.00;0.00;;;;;;;9.31;65.65;101383.75;6087348;23;20016;-75
2023/05/23 04:52:32;;;;;;;0.00;0.00;;;;;;;9.37;64.96;101385.53;6109584;23;20006;-74
2023/05/23 04:54:59;;;;;;;0.00;0.00;;;;;;;9.44;65.14;101387.09;6088631;23;20006;-76
2023/05/23 04:57:25;;;;;;;0.00;0.00;;;;;;;9.54;65.42;101391.97;6083315;23;20014;-75
2023/05/23 04:59:50;;;;;;;0.00;0.00;;;;;;;9.58;64.64;101379.53;6087844;23;20435;-74
2023/05/23 05:02:15;;;;;;;0.00;0.00;;;;;;;9.69;64.95;101407.06;6088819;23;20090;-74
2023/05/23 05:04:41;;;;;;;0.00;0.00;;;;;;;9.73;64.83;101400.09;6058917;23;20440;-73
2023/05/23 05:07:06;;;;;;;0.00;0.00;;;;;;;9.76;64.84;101399.59;6089035;23;20092;-75
2023/05/23 05:09:32;;;;;;;0.00;0.00;;;;;;;9.83;65.06;101400.31;6116611;23;20025;-75
2023/05/23 05:11:58;;;;;;;0.00;0.00;;;;;;;9.82;65.26;101393.19;6085073;23;20105;-75
2023/05/23 05:14:26;;;;;;;0.00;0.00;;;;;;;9.89;64.94;101404.84;6152067;22;20025;-75
2023/05/23 05:16:53;;;;;;;0.00;0.00;;;;;;;10.03;64.86;101410.03;6113174;23;20005;-75
2023/05/23 05:19:20;;;;;;;0.03;0.03;;;;;;;10.13;64.57;101404.81;6141624;23;20096;-75
2023/05/23 05:21:45;;;;;;;0.00;0.00;;;;;;;10.22;64.80;101408.00;6088807;23;20155;-75
2023/05/23 05:24:11;;;;;;;0.00;0.00;;;;;;;10.28;64.96;101402.44;6116042;23;20451;-77
2023/05/23 05:26:37;;;;;;;0.00;0.00;;;;;;;10.39;64.20;101400.75;6091021;23;20020;-77
2023/05/23 05:29:03;;;;;;;0.00;0.00;;;;;;;10.47;64.21;101408.59;6117664;23;20002;-77
2023/05/23 05:31:28;;;;;;;0.00;0.00;;;;;;;10.56;64.14;101403.59;6117620;23;20016;-76
2023/05/23 05:33:54;;;;;;;0.00;0.00;;;;;;;10.70;63.95;101409.59;6087654;23;20037;-77
2023/05/23 05:36:20;;;;;;;0.00;0.00;;;;;;;10.84;64.31;101410.16;6143575;23;20020;-75
2023/05/23 05:38:46;;;;;;;0.00;0.00;;;;;;;10.92;64.14;101407.03;6087676;23;20492;-76
2023/05/23 05:41:11;;;;;;;0.00;0.00;;;;;;;11.02;63.12;101411.88;6117018;23;20017;-76
2023/05/23 05:43:37;;;;;;;0.00;0.00;;;;;;;11.15;63.37;101414.28;6137313;23;20020;-75
2023/05/23 05:46:02;;;;;;;0.00;0.00;;;;;;;11.18;63.51;101412.97;6117263;23;20309;-76
2023/05/23 05:48:28;;;;;;;0.00;0.00;;;;;;;11.24;63.15;101414.72;6117657;23;20312;-75
2023/05/23 05:50:53;;;;;;;0.00;0.00;;;;;;;11.37;63.49;101407.28;6137839;23;20009;-76
2023/05/23 05:53:19;;;;;;;0.00;0.00;;;;;;;11.41;63.47;101405.72;6115761;23;20010;-77
2023/05/23 05:55:44;;;;;;;0.00;0.00;;;;;;;11.51;63.12;101414.13;6113650;23;20013;-75
2023/05/23 05:58:10;;;;;;;0.00;0.00;;;;;;;11.47;63.10;101402.81;6115910;23;20009;-75
2023/05/23 06:00:40;;;;;;;0.00;0.00;;;;;;;11.57;62.75;101418.59;6116849;23;20005;-76
2023/05/23 06:03:07;;;;;;;0.00;0.00;;;;;;;11.61;62.88;101425.25;6112259;23;20009;-74
2023/05/23 06:05:36;;;;;;;0.00;0.00;;;;;;;11.68;63.16;101420.44;6120256;23;20029;-77
2023/05/23 06:08:05;;;;;;;0.00;0.00;;;;;;;11.77;62.69;101422.72;6117188;23;19997;-75
2023/05/23 06:10:33;;;;;;;0.00;0.00;;;;;;;11.74;63.10;101412.28;6152903;23;20025;-75
2023/05/23 06:12:58;;;;;;;0.00;0.00;;;;;;;11.94;62.00;101420.84;6119476;23;20017;-76
2023/05/23 06:15:25;;;;;;;0.00;0.00;;;;;;;11.92;62.59;101409.28;6093160;23;20028;-75
2023/05/23 06:18:01;;;;;;;0.00;0.00;;;;;;;12.00;61.91;101416.28;6089687;23;20425;-73
2023/05/23 06:20:27;;;;;;;0.00;0.00;;;;;;;12.02;62.12;101406.72;6063325;23;20013;-75
2023/05/23 06:22:52;;;;;;;0.00;0.00;;;;;;;12.20;62.00;101427.53;6086255;23;20092;-74
2023/05/23 06:25:18;;;;;;;0.00;0.00;;;;;;;12.31;62.00;101434.00;6159777;23;20160;-74
2023/05/23 06:27:46;;;;;;;0.00;0.00;;;;;;;12.32;61.41;101424.69;6218825;23;20010;-75
2023/05/23 06:30:12;;;;;;;0.00;0.00;;;;;;;12.45;61.86;101433.63;6109565;23;20032;-75
2023/05/23 06:32:39;;;;;;;0.00;0.00;;;;;;;12.55;61.33;101433.78;6113430;23;20006;-75
2023/05/23 06:35:05;;;;;;;0.00;0.00;;;;;;;12.61;61.68;101432.75;6083080;23;20055;-74
2023/05/23 06:37:31;;;;;;;0.00;0.00;;;;;;;12.78;61.77;101426.38;6063900;23;20013;-74
2023/05/23 06:39:56;;;;;;;0.00;0.00;;;;;;;12.96;61.17;101422.47;6112687;23;20021;-75
2023/05/23 06:42:22;;;;;;;0.00;0.00;;;;;;;13.19;60.32;101429.56;6186271;23;20014;-75
2023/05/23 06:44:47;;;;;;;0.00;0.00;;;;;;;13.34;60.67;101424.25;6214211;23;20086;-73
2023/05/23 06:47:13;;;;;;;0.00;0.00;;;;;;;13.51;59.78;101428.81;6082944;23;20002;-75
2023/05/23 06:49:38;;;;;;;0.00;0.00;;;;;;;13.60;59.95;101421.72;6089042;23;20412;-73
2023/05/23 06:52:04;;;;;;;0.00;0.00;;;;;;;13.84;59.35;101421.34;6210232;23;20309;-76
2023/05/23 06:54:29;;;;;;;0.00;0.00;;;;;;;13.98;59.16;101419.00;6217172;23;20055;-75
2023/05/23 06:56:55;;;;;;;0.00;0.00;;;;;;;14.10;58.40;101425.94;6113547;23;20006;-75
2023/05/23 06:59:20;;;;;;;0.00;0.00;;;;;;;14.12;58.21;101412.75;6084402;23;20014;-74
2023/05/23 07:01:45;;;;;;;0.00;0.00;;;;;;;14.28;58.02;101415.59;6190044;23;20042;-73
2023/05/23 07:04:11;;;;;;;0.00;0.00;;;;;;;14.47;58.08;101427.81;6214654;23;20014;-76
2023/05/23 07:06:38;;;;;;;0.00;0.00;;;;;;;14.61;57.57;101424.56;6212702;23;20084;-79
2023/05/23 07:09:45;;;;;;;0.00;0.00;;;;;;;14.77;57.28;101426.28;6075856;23;20009;-78
2023/05/23 07:12:10;;;;;;;0.00;0.00;;;;;;;14.73;56.75;101402.34;6118867;23;20029;-77
2023/05/23 07:14:39;;;;;;;0.00;0.00;;;;;;;14.97;56.18;101405.44;6235855;22;20422;-77
2023/05/23 07:17:04;;;;;;;0.00;0.00;;;;;;;15.10;56.02;101410.44;6192527;23;20017;-78
2023/05/23 07:19:30;;;;;;;0.00;0.00;;;;;;;15.33;55.58;101435.78;6222079;23;20010;-77
2023/05/23 07:22:18;;;;;;;0.00;0.00;;;;;;;15.47;54.92;101425.91;6117872;23;20082;-80
2023/05/23 07:25:12;;;;;;;0.00;0.00;;;;;;;15.79;54.39;101432.28;6118204;23;20330;-81
2023/05/23 07:27:37;;;;;;;0.00;0.00;;;;;;;15.97;53.35;101417.91;6143121;23;20005;-81
2023/05/23 07:30:13;;;;;;;0.00;0.00;;;;;;;16.38;52.60;101416.97;6092671;23;20010;-82
2023/05/23 07:32:56;;;;;;;0.00;0.00;;;;;;;16.86;51.42;101411.00;6121282;23;20001;-82
2023/05/23 07:35:25;;;;;;;0.00;0.00;;;;;;;17.28;50.44;101413.22;6168412;23;20008;-79
2023/05/23 07:38:07;;;;;;;;;;;;;;;;;;;;;
2023/05/23 07:40:37;;;;;;;0.00;0.00;;;;;;;18.09;47.92;101437.75;6139311;23;21201;-80
2023/05/23 07:43:05;;;;;;;0.00;0.00;;;;;;;18.31;47.47;101456.63;6118238;23;20010;-80
2023/05/23 07:45:30;;;;;;;0.00;0.00;;;;;;;18.44;47.01;101432.13;6116080;23;20055;-80
2023/05/23 07:47:56;;;;;;;0.00;0.00;;;;;;;18.55;46.70;101418.97;6119227;23;20002;-80
2023/05/23 07:50:31;;;;;;;0.00;0.00;;;;;;;18.87;46.12;101448.78;6117853;23;20015;-81
2023/05/23 07:52:56;;;;;;;0.00;0.00;;;;;;;18.94;45.67;101456.72;6141423;23;20423;-81
2023/05/23 07:55:44;;;;;;;0.00;0.00;;;;;;;19.19;46.10;101469.44;6111951;23;20024;-84
2023/05/23 07:58:15;;;;;;;0.00;0.00;;;;;;;19.17;45.38;101439.25;6116897;23;20012;-79
2023/05/23 08:00:41;;;;;;;0.00;0.00;;;;;;;19.37;45.10;101442.81;6091633;23;20010;-80
2023/05/23 08:03:06;;;;;;;0.00;0.00;;;;;;;19.52;44.77;101456.47;6089588;23;20017;-81
2023/05/23 08:05:39;;;;;;;0.00;0.00;;;;;;;19.54;44.25;101436.75;6122083;23;20010;-83
2023/05/23 08:11:29;;;;;;;0.00;0.00;;;;;;;19.84;43.15;101423.50;6148386;23;20068;-83
2023/05/23 08:14:05;;;;;;;;;;;;;;;;;;;;;
2023/05/23 08:16:34;;;;;;;0.00;0.00;;;;;;;20.05;42.27;101413.66;6091436;23;20120;-81
2023/05/23 08:19:06;;;;;;;0.00;0.00;;;;;;;20.32;41.67;101427.88;6090190;23;20010;-80
2023/05/23 08:21:40;;;;;;;0.00;0.00;;;;;;;20.43;40.92;101407.13;6091373;23;20384;-80
2023/05/23 08:24:06;;;;;;;0.00;0.00;;;;;;;20.74;40.52;101410.09;6093982;23;20051;-80
2023/05/23 08:26:39;;;;;;;0.00;0.00;;;;;;;21.09;40.12;101435.44;6115577;23;20357;-81
2023/05/23 08:29:04;;;;;;;0.00;0.00;;;;;;;21.27;39.72;101408.63;6092751;23;20032;-81
2023/05/23 08:31:33;;;;;;;0.00;0.00;;;;;;;21.60;39.12;101427.06;6089574;23;20329;-80
2023/05/23 08:34:09;;;;;;;;;;;;;;;;;;;;;
2023/05/23 08:36:38;;;;;;;0.00;0.00;;;;;;;22.08;37.41;101431.94;6110810;23;20080;-78
2023/05/23 08:39:04;;;;;;;0.00;0.00;;;;;;;22.34;37.66;101449.94;6107739;23;20038;-78
2023/05/23 08:41:32;;;;;;;0.00;0.00;;;;;;;22.34;37.31;101439.63;6088410;23;20833;-80
2023/05/23 08:44:18;;;;;;;0.00;0.00;;;;;;;22.52;37.22;101436.91;6087523;23;20039;-82
2023/05/23 08:47:10;;;;;;;0.00;0.00;;;;;;;22.48;36.95;101434.75;6090848;23;20028;-81
2023/05/23 08:49:39;;;;;;;0.00;0.00;;;;;;;22.46;36.48;101448.19;6089089;23;20017;-82
2023/05/23 08:52:18;;;;;;;0.00;0.00;;;;;;;22.57;36.24;101420.00;6086745;23;20017;-84
2023/05/23 08:55:11;;;;;;;0.00;0.00;;;;;;;22.85;35.80;101437.28;6087800;23;20072;-81
2023/05/23 08:57:29;;;;;;;0.00;0.00;;;;;;;22.95;35.29;101419.44;6085475;23;20455;-84
2023/05/23 09:00:18;;;;;;;;;;;;;;;;;;;;;
2023/05/23 09:02:48;;;;;;;0.00;0.00;;;;;;;23.65;34.45;101436.19;6093230;23;20061;-84
2023/05/23 09:13:49;;;;;;;;;;;;;;;;;;;;;
2023/05/23 09:20:18;;;;;;;0.00;0.00;;;;;;;24.75;32.98;101441.28;6029169;23;20056;-78
2023/05/23 09:30:59;;;;;;;0.00;0.00;;;;;;;25.17;32.54;101429.28;6001366;23;20063;-79
2023/05/23 09:37:36;;;;;;;;;;;;;;;;;;;;;
2023/05/23 09:41:10;;;;;;;;;;;;;;;;;;;;;
2023/05/23 10:03:00;;;;;;;;;;;;;;;;;;;;;
2023/05/23 10:27:05;;;;;;;;;;;;;;;;;;;;;
2023/05/23 10:29:32;;;;;;;0.00;0.00;;;;;;;35.76;18.57;101434.38;6254950;22;20094;-76
2023/05/23 10:32:02;;;;;;;0.00;0.00;;;;;;;34.36;19.72;101459.16;6264787;22;20429;-75
2023/05/23 10:34:40;;;;;;;0.00;0.00;;;;;;;32.69;21.13;101467.44;6261043;22;20004;-75
2023/05/23 10:37:14;;;;;;;0.00;0.00;;;;;;;31.46;22.28;101462.56;6237680;22;20008;-75
2023/05/23 10:40:04;;;;;;;0.00;0.00;;;;;;;30.71;23.28;101463.13;6267883;22;20004;-77
2023/05/23 10:42:54;;;;;;;0.00;0.00;;;;;;;29.74;23.67;101467.03;6263086;22;20069;-75
2023/05/23 10:45:23;;;;;;;0.00;0.00;;;;;;;28.88;24.32;101444.31;6240757;22;20012;-74
2023/05/23 10:47:54;;;;;;;0.00;0.00;;;;;;;28.35;24.56;101446.63;6242475;22;20035;-76
2023/05/23 10:50:32;;;;;;;0.00;0.00;;;;;;;27.94;24.74;101452.38;6239599;22;20092;-75
2023/05/23 10:53:08;;;;;;;0.00;0.00;;;;;;;27.58;25.57;101451.38;6269804;22;20031;-76
2023/05/23 10:55:50;;;;;;;0.00;0.00;;;;;;;27.22;26.19;101455.09;6264066;22;20422;-75
2023/05/23 10:58:25;;;;;;;0.00;0.00;;;;;;;27.14;26.39;101454.06;6243331;22;20000;-76
2023/05/23 11:01:19;;;;;;;0.00;0.00;;;;;;;27.33;26.39;101439.41;6262640;22;20101;-76
2023/05/23 11:03:45;;;;;;;0.00;0.00;;;;;;;28.00;26.41;101438.91;6240651;22;20030;-75
2023/05/23 11:06:35;;;;;;;0.00;0.00;;;;;;;28.49;25.96;101461.03;6241507;22;20004;-75
2023/05/23 11:09:10;;;;;;;0.00;0.00;;;;;;;28.77;25.68;101453.66;6236487;22;20334;-75
2023/05/23 11:12:04;;;;;;;0.00;0.00;;;;;;;29.29;25.06;101458.06;6244419;22;20054;-76
2023/05/23 11:14:33;;;;;;;0.00;0.00;;;;;;;29.68;24.34;101457.25;6246848;22;20011;-73
2023/05/23 11:17:16;;;;;;;0.00;0.00;;;;;;;29.83;24.16;101427.34;6251022;22;20018;-74
2023/05/23 11:20:04;;;;;;;0.00;0.00;;;;;;;30.14;24.30;101450.88;6248595;22;20007;-74
2023/05/23 11:22:35;;;;;;;0.00;0.00;;;;;;;30.22;24.22;101441.34;6240786;22;20002;-76
2023/05/23 11:25:15;;;;;;;0.00;0.00;;;;;;;29.96;23.41;101428.81;6244854;22;20330;-76
2023/05/23 11:27:48;;;;;;;0.00;0.00;;;;;;;29.62;24.22;101442.66;6180095;22;20147;-76
2023/05/23 11:30:16;;;;;;;0.00;0.00;;;;;;;29.50;24.37;101456.91;6139409;23;20029;-75
2023/05/23 11:32:55;;;;;;;0.00;0.00;;;;;;;28.84;25.18;101445.38;6064598;23;20009;-74
2023/05/23 11:35:21;;;;;;;0.00;0.00;;;;;;;28.63;25.15;101435.25;6096328;23;20032;-75
2023/05/23 11:37:49;;;;;;;0.00;0.00;;;;;;;28.72;25.01;101435.91;6116648;23;20006;-76
2023/05/23 11:40:34;;;;;;;0.00;0.00;;;;;;;29.28;25.40;101433.94;6068031;23;20028;-75
2023/05/23 11:43:05;;;;;;;0.00;0.00;;;;;;;30.21;24.62;101445.34;6085834;23;20013;-76
2023/05/23 11:45:38;;;;;;;0.00;0.00;;;;;;;31.09;23.95;101444.34;6114558;23;20387;-76
2023/05/23 11:48:15;;;;;;;0.00;0.00;;;;;;;31.73;23.33;101442.69;6112372;23;20006;-75
2023/05/23 11:50:45;;;;;;;0.00;0.00;;;;;;;32.76;22.82;101464.66;6087374;23;20030;-75
2023/05/23 11:53:21;;;;;;;;;;;;;;;;;;;;;
2023/05/23 11:55:56;;;;;;;0.00;0.00;;;;;;;33.82;21.43;101455.44;6114384;23;20004;-75
2023/05/23 11:58:30;;;;;;;0.00;0.00;;;;;;;34.12;20.88;101443.72;6109576;23;19998;-75
2023/05/23 12:01:07;;;;;;;0.00;0.00;;;;;;;34.51;20.60;101474.16;6086990;23;20064;-75
2023/05/23 12:03:50;;;;;;;0.00;0.00;;;;;;;36.97;19.74;101465.09;6130990;23;20094;-75
2023/05/23 12:06:18;;;;;;;0.00;0.00;;;;;;;38.65;18.15;101477.34;6113671;23;20063;-73
2023/05/23 12:08:46;;;;;;;0.00;0.00;;;;;;;38.93;17.66;101473.16;6107583;23;20044;-75
2023/05/23 12:11:12;;;;;;;0.00;0.00;;;;;;;38.52;17.33;101465.75;6087487;23;20268;-75
2023/05/23 12:13:40;;;;;;;0.00;0.00;;;;;;;37.99;17.60;101474.75;6109183;23;20109;-73
2023/05/23 12:16:06;;;;;;;0.00;0.00;;;;;;;38.34;17.77;101471.78;6084753;23;20047;-75
2023/05/23 12:18:32;;;;;;;0.00;0.00;;;;;;;38.87;17.52;101469.19;6112987;23;20722;-74
2023/05/23 12:21:04;;;;;;;0.00;0.00;;;;;;;39.52;17.17;101470.75;6082727;23;20093;-75
2023/05/23 12:23:30;;;;;;;0.00;0.00;;;;;;;39.25;17.08;101472.53;6087412;23;20016;-75
2023/05/23 12:26:28;;;;;;;0.00;0.00;;;;;;;38.48;17.59;101476.41;6085228;23;20010;-76
2023/05/23 12:33:04;;;;;;;0.00;0.00;;;;;;;39.19;17.52;101477.16;5990632;23;20047;-74
2023/05/23 12:35:44;;;;;;;0.00;0.00;;;;;;;40.52;16.96;101461.00;6000012;23;20462;-75
2023/05/23 12:38:15;;;;;;;0.00;0.00;;;;;;;41.28;15.86;101469.13;6112327;23;20001;-75
2023/05/23 12:40:43;;;;;;;0.00;0.00;;;;;;;40.88;15.39;101475.16;6110065;23;20002;-75
2023/05/23 12:43:09;;;;;;;0.00;0.00;;;;;;;40.21;15.53;101476.50;6208961;23;20432;-74
2023/05/23 12:45:35;;;;;;;0.00;0.00;;;;;;;39.39;15.25;101474.28;6112928;23;20008;-75
2023/05/23 12:48:10;;;;;;;0.00;0.00;;;;;;;38.48;15.84;101470.72;6110953;23;20010;-75
2023/05/23 12:50:35;;;;;;;0.00;0.00;;;;;;;38.74;15.98;101472.72;6211341;23;20021;-75
2023/05/23 12:53:01;;;;;;;0.00;0.00;;;;;;;38.52;16.38;101460.03;6112408;23;20014;-76
2023/05/23 12:55:26;;;;;;;0.00;0.00;;;;;;;38.90;16.28;101465.47;6210114;23;20032;-76
2023/05/23 12:58:20;;;;;;;0.00;0.00;;;;;;;38.96;16.34;101460.88;6211718;23;20005;-75
2023/05/23 13:00:48;;;;;;;0.00;0.00;;;;;;;39.86;16.03;101449.53;6095823;23;20009;-74
2023/05/23 13:03:31;;;;;;;0.00;0.00;;;;;;;40.78;15.36;101448.38;6089047;23;20017;-75